Latest Weather Observations for Kilmore Gap

IDV60801

Issued at 9:22 am EDT Friday 22 October 2021 (issued every 10 minutes, with the page automatically refreshed every 10 minutes)

About weather observations | Map of weather stations | Latest weather observations for VIC | Other Formats
Station Details ID: 088162 Name: KILMORE GAP Lat: -37.38 Lon: 144.97 Height: 527.8 m
Data from the previous 72 hours. | See also: Recent months at Kilmore Gap
Date/Time
EDT
Temp
°C
App
Temp
°C
Dew
Point
°C
Rel
Hum
%
Delta-T
°C
Wind Press
QNH
hPa
Press
MSL
hPa
Rain since
9am
mm
Dir  Spd
km/h
Gust
km/h
Spd
kts
Gust
kts
22/09:00am 16.0 11.3 12.0 77 2.2 N 28 35 15 19 1016.3 1016.1 0.0
22/08:30am 15.2 11.5 11.4 78 2.1 N 22 28 12 15 1016.2 1016.0 0.0
22/08:00am 14.3 11.1 11.1 81 1.7 N 19 24 10 13 1016.0 1015.7 0.0
22/07:30am 13.9 10.5 10.5 80 1.8 NNE 19 22 10 12 1015.8 1015.5 0.0
22/07:00am 13.1 9.9 10.1 82 1.6 N 17 19 9 10 1015.7 1015.4 0.0
22/06:30am 12.7 9.5 9.9 83 1.5 NNE 17 19 9 10 1015.6 1015.3 0.0
22/06:00am 12.8 9.6 9.8 82 1.6 N 17 19 9 10 1015.6 1015.3 0.0
22/05:30am 12.7 10.1 9.5 81 1.7 NNW 13 17 7 9 1015.3 1015.0 0.0
22/05:00am 12.9 9.6 9.7 81 1.7 N 17 20 9 11 1015.2 1014.9 0.0
22/04:30am 13.1 9.3 9.7 80 1.8 N 20 24 11 13 1014.9 1014.6 0.0
22/04:00am 13.2 8.3 9.8 80 1.8 N 26 32 14 17 1014.7 1014.4 0.0
22/03:30am 13.7 8.0 9.9 78 2.0 N 30 33 16 18 1014.6 1014.3 0.0
22/03:00am 13.9 8.3 10.1 78 2.0 N 30 33 16 18 1014.6 1014.3 0.0
22/02:30am 13.6 8.1 10.4 81 1.7 N 30 33 16 18 1014.8 1014.5 0.0
22/02:00am 13.3 8.1 10.3 82 1.6 N 28 32 15 17 1014.9 1014.6 0.0
22/01:30am 13.8 8.2 10.2 79 1.9 N 30 33 16 18 1015.1 1014.8 0.0
22/01:00am 14.5 8.8 9.7 73 2.5 N 30 35 16 19 1015.2 1014.9 0.0
22/12:30am 14.2 8.8 9.6 74 2.4 N 28 32 15 17 1015.4 1015.1 0.0
22/12:00am 14.5 9.2 9.7 73 2.5 NNE 28 35 15 19 1015.2 1014.9 0.0
 
Date/Time
EDT
Temp
°C
App
Temp
°C
Dew
Point
°C
Rel
Hum
%
Delta-T
°C
Wind Press
QNH
hPa
Press
MSL
hPa
Rain since
9am
mm
Dir  Spd
km/h
Gust
km/h
Spd
kts
Gust
kts
21/11:30pm 14.7 9.3 9.5 71 2.8 NNE 28 32 15 17 1015.2 1014.9 0.0
21/11:00pm 14.8 9.9 9.8 72 2.7 NNE 26 32 14 17 1015.4 1015.1 0.0
21/10:30pm 15.3 10.8 9.9 70 2.9 NNE 24 28 13 15 1015.6 1015.3 0.0
21/10:00pm 15.9 11.7 9.8 67 3.3 NNE 22 28 12 15 1015.7 1015.4 0.0
21/09:30pm 15.7 12.0 10.2 70 3.0 NNE 20 22 11 12 1015.8 1015.5 0.0
21/09:00pm 15.4 11.9 10.2 71 2.8 NNE 19 24 10 13 1015.7 1015.4 0.0
21/08:30pm 15.6 11.9 10.2 70 2.9 NNE 20 24 11 13 1015.3 1015.0 0.0
21/08:00pm 15.6 12.2 10.6 72 2.7 NNE 19 22 10 12 1015.3 1015.0 0.0
21/07:30pm 16.1 12.5 10.6 70 3.0 NNE 20 26 11 14 1015.1 1014.8 0.0
21/07:00pm 16.6 12.7 10.7 68 3.2 NNE 22 28 12 15 1015.0 1014.7 0.0
21/06:30pm 17.0 13.5 10.8 67 3.4 N 20 26 11 14 1015.0 1014.7 0.0
21/06:00pm 17.2 12.9 10.6 65 3.6 NNE 24 32 13 17 1014.6 1014.3 0.0
21/05:30pm 17.6 12.5 10.5 63 3.9 NNE 28 35 15 19 1014.5 1014.2 0.0
21/05:00pm 17.6 12.4 10.2 62 4.0 NNE 28 35 15 19 1014.5 1014.2 0.0
21/04:30pm 17.5 12.5 10.9 65 3.6 NNE 28 33 15 18 1014.6 1014.3 0.0
21/04:00pm 17.2 11.6 10.3 64 3.8 N 30 37 16 20 1014.7 1014.4 0.0
21/03:30pm 17.6 11.4 10.0 61 4.1 N 33 43 18 23 1014.9 1014.6 0.0
21/03:00pm 18.4 12.0 10.8 61 4.2 N 35 44 19 24 1014.8 1014.5 0.0
21/02:30pm 18.0 11.7 10.9 63 3.9 N 35 44 19 24 1015.1 1014.8 0.0
21/02:00pm 18.7 12.4 12.2 66 3.7 N 37 46 20 25 1015.2 1014.9 0.0
21/01:30pm 17.9 11.3 11.2 65 3.7 N 37 46 20 25 1015.4 1015.1 0.0
21/01:00pm 17.6 11.4 11.4 67 3.5 N 35 46 19 25 1015.6 1015.3 0.0
21/12:30pm 17.1 9.0 10.9 67 3.4 N 44 56 24 30 1015.6 1015.3 0.0
21/12:00pm 16.3 8.2 10.6 69 3.1 N 44 54 24 29 1015.7 1015.4 0.0
21/11:30am 16.0 9.0 11.2 73 2.6 N 39 52 21 28 1016.1 1015.9 0.0
21/11:23am 15.7 7.7 10.5 71 2.8 N 43 61 23 33 1016.0 1015.7 0.0
21/11:00am 14.9 6.9 10.5 75 2.4 N 43 54 23 29 1016.0 1015.7 0.0
21/10:30am 14.1 6.0 10.1 77 2.1 N 43 56 23 30 1016.0 1015.7 0.0
21/10:00am 14.2 6.3 10.8 80 1.8 N 43 54 23 29 1015.9 1015.6 0.0
21/09:30am 12.8 4.7 10.2 84 1.4 N 43 52 23 28 1015.8 1015.5 0.0
21/09:00am 12.7 4.6 10.2 85 1.3 N 43 54 23 29 1015.8 1015.5 0.0
21/08:30am 13.5 5.6 10.9 84 1.4 N 43 54 23 29 1015.8 1015.5 0.0
21/08:00am 12.3 4.2 10.2 87 1.1 N 43 54 23 29 1015.6 1015.3 0.0
21/07:30am 11.6 4.0 10.5 93 0.6 N 41 48 22 26 1015.6 1015.3 0.0
21/07:00am 11.4 3.3 10.1 92 0.7 N 43 57 23 31 1015.4 1015.1 0.0
21/06:30am 11.5 3.4 10.1 91 0.7 N 43 50 23 27 1015.1 1014.8 0.0
21/06:00am 11.6 4.2 9.9 89 0.9 N 39 50 21 27 1014.9 1014.6 0.0
21/05:30am 11.7 4.5 9.3 85 1.2 N 37 46 20 25 1015.1 1014.8 0.0
21/05:00am 11.9 4.2 8.7 81 1.6 N 39 46 21 25 1014.8 1014.5 0.0
21/04:30am 12.7 5.3 8.4 75 2.2 N 37 48 20 26 1014.9 1014.6 0.0
21/04:00am 13.2 6.1 8.1 71 2.6 N 35 44 19 24 1014.7 1014.4 0.0
21/03:30am 13.0 6.8 7.9 71 2.6 N 30 37 16 20 1014.7 1014.4 0.0
21/03:00am 13.1 7.6 7.5 69 2.8 N 26 30 14 16 1014.8 1014.5 0.0
21/02:30am 13.0 7.8 7.2 68 2.9 N 24 28 13 15 1015.0 1014.7 0.0
21/02:00am 13.5 8.3 7.1 65 3.2 N 24 28 13 15 1015.3 1015.0 0.0
21/01:30am 13.7 8.7 6.6 62 3.5 N 22 24 12 13 1015.9 1015.6 0.0
21/01:00am 14.2 8.9 6.6 60 3.8 N 24 28 13 15 1016.0 1015.7 0.0
21/12:30am 14.3 8.9 6.4 59 3.9 NNE 24 30 13 16 1016.5 1016.2 0.0
21/12:00am 14.7 8.9 6.3 57 4.2 NNE 26 30 14 16 1016.6 1016.3 0.0
 
Date/Time
EDT
Temp
°C
App
Temp
°C
Dew
Point
°C
Rel
Hum
%
Delta-T
°C
Wind Press
QNH
hPa
Press
MSL
hPa
Rain since
9am
mm
Dir  Spd
km/h
Gust
km/h
Spd
kts
Gust
kts
20/11:30pm 14.6 9.2 6.4 58 4.1 NNE 24 30 13 16 1016.8 1016.5 0.0
20/11:00pm 14.5 9.7 7.3 62 3.6 N 22 28 12 15 1017.0 1016.7 0.0
20/10:30pm 14.2 9.0 7.3 63 3.5 N 24 28 13 15 1017.4 1017.1 0.0
20/10:00pm 14.4 9.6 7.2 62 3.6 N 22 28 12 15 1017.5 1017.2 0.0
20/09:30pm 14.6 10.0 6.7 59 3.9 N 20 24 11 13 1017.7 1017.5 0.0
20/09:00pm 15.3 10.8 6.3 55 4.5 N 19 20 10 11 1017.7 1017.5 0.0
20/08:30pm 15.7 11.2 6.2 53 4.7 N 19 22 10 12 1017.4 1017.1 0.0
20/08:00pm 15.7 12.0 6.4 54 4.6 N 15 17 8 9 1017.3 1017.0 0.0
20/07:30pm 16.7 13.0 6.2 50 5.3 NNW 15 19 8 10 1017.3 1017.0 0.0
20/07:00pm 17.0 14.2 7.1 52 5.1 N 11 13 6 7 1017.0 1016.7 0.0
20/06:30pm 17.8 14.5 8.1 53 5.1 N 15 17 8 9 1017.0 1016.7 0.0
20/06:00pm 18.3 15.8 8.0 51 5.4 N 11 17 6 9 1016.9 1016.6 0.0
20/05:30pm 18.7 16.2 9.8 56 4.8 NNW 13 22 7 12 1016.8 1016.5 0.0
20/05:00pm 19.3 16.8 8.0 48 6.0 N 11 17 6 9 1016.9 1016.6 0.0
20/04:30pm 19.5 17.0 6.6 43 6.6 NNE 9 19 5 10 1017.1 1016.8 0.0
20/04:00pm 19.4 16.4 5.8 41 6.9 NE 11 19 6 10 1017.3 1017.0 0.0
20/03:30pm 19.2 15.7 7.0 45 6.3 N 15 22 8 12 1017.9 1017.7 0.0
20/03:00pm 19.1 16.2 6.6 44 6.4 NNW 11 20 6 11 1018.1 1017.9 0.0
20/02:30pm 18.8 16.6 6.0 43 6.5 N 7 15 4 8 1018.8 1018.5 0.0
20/02:00pm 18.7 16.8 7.5 48 5.8 NE 7 17 4 9 1019.3 1019.0 0.0
20/01:30pm 17.7 15.8 7.7 52 5.2 NNW 7 11 4 6 1019.4 1019.2 0.0
20/01:00pm 17.5 16.0 9.2 58 4.4 NE 7 13 4 7 1019.4 1019.2 0.0
20/12:30pm 17.1 15.1 8.8 58 4.4 NE 9 13 5 7 1019.7 1019.5 0.0
20/12:00pm 16.4 15.2 9.6 64 3.6 NE 6 15 3 8 1020.2 1020.0 0.0
20/11:30am 15.6 13.8 9.5 67 3.2 NNW 9 19 5 10 1020.7 1020.4 0.0
20/11:00am 14.9 13.6 10.1 73 2.6 NE 7 15 4 8 1021.0 1020.8 0.0
20/10:30am 12.4 12.4 12.4 100 0.0 WSW 4 7 2 4 1021.4 1021.2 0.0
20/10:00am 10.4 9.8 10.4 100 0.0 WNW 4 9 2 5 1021.4 1021.2 0.0
20/09:56am 10.2 9.5 10.2 100 0.0 WNW 4 9 2 5 1021.4 1021.2 0.0
20/09:50am 10.0 9.3 10.0 100 0.0 WNW 4 7 2 4 1021.5 1021.3 0.0
20/09:30am 9.3 7.8 9.3 100 0.0 SE 7 9 4 5 1021.5 1021.3 0.0
20/09:23am 9.4 7.6 9.4 100 0.0 SE 9 13 5 7 1021.5 1021.3 0.0
20/09:00am 8.8 6.4 8.8 100 0.0 SSE 11 15 6 8 1021.6 1021.4 0.2
20/08:47am 8.7 5.9 8.7 100 0.0 S 13 19 7 10 1021.8 1021.6 0.2
20/08:30am 7.8 4.8 7.8 100 0.0 SSW 13 19 7 10 1021.7 1021.5 0.2
20/08:00am 7.7 5.1 7.7 100 0.0 SSW 11 17 6 9 1021.8 1021.6 0.2
20/07:30am 7.6 3.8 7.6 100 0.0 SSE 17 20 9 11 1021.7 1021.5 0.2
20/07:00am 7.3 4.6 7.3 100 0.0 SSW 11 17 6 9 1021.8 1021.6 0.2
20/06:30am 7.2 3.7 7.2 100 0.0 SW 15 19 8 10 1021.7 1021.5 0.2
20/06:00am 7.1 4.0 7.1 100 0.0 SW 13 19 7 10 1021.4 1021.2 0.2
20/05:30am 7.1 4.0 7.1 100 0.0 S 13 17 7 9 1020.9 1020.6 0.2
20/05:00am 7.1 4.7 7.1 100 0.0 SSW 9 13 5 7 1020.8 1020.5 0.2
20/04:30am 7.2 3.7 7.2 100 0.0 S 15 19 8 10 1020.9 1020.6 0.2
20/04:00am 7.3 3.8 7.3 100 0.0 SSE 15 20 8 11 1021.1 1020.9 0.2
20/03:49am 7.4 3.6 7.4 100 0.0 SSE 17 20 9 11 1021.4 1021.2 0.2
20/03:46am 7.4 3.6 7.4 100 0.0 SSE 17 20 9 11 1021.4 1021.2 0.2
20/03:38am 7.5 3.7 7.5 100 0.0 SSE 17 20 9 11 1021.5 1021.3 0.2
20/03:30am 7.5 3.7 7.5 100 0.0 SSE 17 22 9 12 1021.6 1021.4 0.2
20/03:22am 7.5 3.7 7.5 100 0.0 SSE 17 24 9 13 1021.6 1021.4 0.2
20/03:16am 7.5 4.1 7.5 100 0.0 SSE 15 20 8 11 1021.7 1021.5 0.2
20/03:00am 7.6 3.8 7.6 100 0.0 SSE 17 22 9 12 1021.7 1021.5 0.2
20/02:30am 7.7 3.6 7.7 100 0.0 SSE 19 24 10 13 1022.1 1021.9 0.2
20/02:00am 7.7 3.4 7.7 100 0.0 SSE 20 26 11 14 1022.5 1022.2 0.2
20/01:30am 7.6 3.8 7.6 100 0.0 SSE 17 20 9 11 1022.7 1022.5 0.2
20/01:00am 7.5 3.3 7.5 100 0.0 SSE 19 22 10 12 1023.0 1022.8 0.2
20/12:46am 7.4 2.6 7.4 100 0.0 SE 22 28 12 15 1022.7 1022.5 0.2
20/12:41am 7.6 2.5 7.6 100 0.0 SE 24 28 13 15 1022.7 1022.5 0.2
20/12:36am 7.7 3.0 7.7 100 0.0 SE 22 28 12 15 1022.8 1022.6 0.2
20/12:30am 7.6 2.9 7.6 100 0.0 SE 22 28 12 15 1022.9 1022.7 0.2
20/12:04am 7.7 2.6 7.7 100 0.0 SSE 24 28 13 15 1023.3 1023.1 0.2
20/12:00am 7.6 2.5 7.6 100 0.0 SSE 24 28 13 15 1023.3 1023.1 0.2
 
Date/Time
EDT
Temp
°C
App
Temp
°C
Dew
Point
°C
Rel
Hum
%
Delta-T
°C
Wind Press
QNH
hPa
Press
MSL
hPa
Rain since
9am
mm
Dir  Spd
km/h
Gust
km/h
Spd
kts
Gust
kts
19/11:30pm 7.2 2.0 7.2 100 0.0 SSE 24 28 13 15 1023.5 1023.3 0.2
19/11:00pm 7.5 3.3 7.5 100 0.0 SSE 19 26 10 14 1023.4 1023.2 0.2
19/10:30pm 8.0 3.9 8.0 100 0.0 S 19 28 10 15 1023.4 1023.2 0.2
19/10:18pm 8.4 3.9 8.4 100 0.0 S 22 35 12 19 1023.5 1023.3 0.2
19/10:14pm 8.4 3.5 8.4 100 0.0 S 24 35 13 19 1023.2 1023.0 0.2
19/10:00pm 8.4 4.2 8.4 100 0.0 S 20 32 11 17 1022.9 1022.7 0.2
19/09:30pm 8.6 2.6 8.6 100 0.0 S 30 35 16 19 1022.6 1022.3 0.2
19/09:00pm 9.1 5.3 9.1 100 0.0 SSW 19 28 10 15 1022.7 1022.5 0.2
19/08:49pm 9.0 5.0 9.0 100 0.0 SSW 20 30 11 16 1022.7 1022.5 0.2
19/08:30pm 9.1 5.3 9.1 100 0.0 SSW 19 26 10 14 1022.6 1022.3 0.2
19/08:28pm 9.1 5.3 9.1 100 0.0 SSW 19 26 10 14 1022.6 1022.3 0.2
19/08:17pm 9.1 5.3 9.1 100 0.0 SSW 19 26 10 14 1022.7 1022.5 0.2
19/08:08pm 9.1 5.3 9.1 100 0.0 SSW 19 26 10 14 1022.6 1022.3 0.2
19/08:00pm 9.0 5.6 9.0 100 0.0 SSW 17 24 9 13 1022.5 1022.2 0.2
19/07:56pm 9.2 5.8 9.2 100 0.0 SSW 17 24 9 13 1022.5 1022.2 0.2
19/07:30pm 9.9 6.7 9.9 100 0.0 SSW 17 26 9 14 1022.2 1022.0 0.2
19/07:00pm 10.1 6.5 10.0 99 0.1 SSW 19 26 10 14 1021.7 1021.5 0.2
19/06:30pm 10.3 7.1 10.1 99 0.1 SSW 17 24 9 13 1021.6 1021.4 0.2
19/06:00pm 10.5 6.8 10.3 99 0.1 S 20 32 11 17 1021.6 1021.4 0.2
19/05:30pm 10.8 7.1 9.4 91 0.7 SSW 19 28 10 15 1022.0 1021.8 0.2
19/05:00pm 10.8 6.0 8.9 88 1.0 SSW 24 37 13 20 1021.9 1021.7 0.2
19/04:54pm 10.9 6.4 8.7 86 1.1 SSW 22 37 12 20 1021.8 1021.6 0.2
19/04:30pm 11.7 6.8 8.6 81 1.6 SSW 24 41 13 22 1021.5 1021.3 0.2
19/04:00pm 12.1 6.9 8.8 80 1.7 S 26 41 14 22 1021.3 1021.1 0.2
19/03:30pm 12.8 6.8 8.7 76 2.1 S 30 43 16 23 1021.2 1021.0 0.2
19/03:00pm 12.5 7.4 7.8 73 2.4 S 24 39 13 21 1021.3 1021.1 0.2
19/02:30pm 11.9 5.9 7.0 72 2.4 S 28 43 15 23 1021.4 1021.2 0.2
19/02:00pm 12.1 6.9 7.2 72 2.4 S 24 43 13 23 1021.6 1021.4 0.2
19/01:30pm 11.1 6.1 6.3 72 2.3 S 22 41 12 22 1021.8 1021.6 0.2
19/01:00pm 11.2 5.1 6.7 74 2.2 S 28 41 15 22 1021.8 1021.6 0.0
19/12:30pm 10.0 4.3 6.5 79 1.7 S 26 39 14 21 1021.8 1021.6 0.0
19/12:00pm 10.5 4.7 8.1 85 1.2 S 28 39 15 21 1021.7 1021.5 0.0
19/11:49am 9.7 4.1 7.0 83 1.3 S 26 43 14 23 1021.8 1021.6 0.0
19/11:30am 10.0 3.6 8.6 91 0.7 S 32 46 17 25 1021.7 1021.5 0.0
19/11:00am 9.4 3.6 9.3 99 0.1 S 30 46 16 25 1021.5 1021.3 0.0
19/10:55am 9.7 4.4 9.7 100 0.0 SSW 28 46 15 25 1021.5 1021.3 0.0
19/10:30am 8.6 2.6 8.6 100 0.0 S 30 46 16 25 1021.2 1021.0 0.0
19/10:16am 8.4 2.0 8.4 100 0.0 S 32 50 17 27 1021.1 1020.9 0.0
19/10:15am 8.5 2.1 8.5 100 0.0 S 32 48 17 26 1021.1 1020.9 0.0
19/10:13am 8.3 2.2 8.3 100 0.0 S 30 48 16 26 1021.0 1020.8 0.0
19/10:00am 7.8 2.4 7.8 100 0.0 SSW 26 43 14 23 1021.1 1020.9 0.0
19/09:50am 7.8 1.6 7.8 100 0.0 S 30 43 16 23 1021.2 1021.0 0.0
19/09:36am 8.5 1.5 8.5 100 0.0 S 35 46 19 25 1021.1 1020.9 0.0
19/09:30am 7.7 -0.2 7.7 100 0.0 S 39 48 21 26 1021.1 1020.9 0.0
19/09:23am 7.9 1.1 7.9 100 0.0 S 33 48 18 26 1021.1 1020.9 0.0
19/09:22am 7.8 1.2 7.8 100 0.0 S 32 48 17 26 1021.1 1020.9 0.0

Other formats

Comma delimited format used in spreadsheet applications
http://www.bom.gov.au/fwo/IDV60801/IDV60801.94860.axf

JavaScript Object Notation format (JSON) in row-major order
http://www.bom.gov.au/fwo/IDV60801/IDV60801.94860.json

Data quality

Most of these data are generated automatically and are frequently updated. Quality checks on data are not normally performed. It is possible for incorrect values to appear. Refer to information at About Latest Weather Observations and please check the disclaimer before using these data.